Amberson, Pennsylvania
Current Conditions -  °F | °C
As of 11:53 AM on Monday 24 Nov 2014 (Local Time) from KHGR Reporting Station
Broken Clouds Broken Clouds  
Wind Chill: 66°   Ceiling: 3600
Heat Index: 66°   Visibility: 10mi
Dew Point: 53°   Wind: 22mph
Humidity: 63%   Direction: 190°S
Pressure: 29.57"   Gusts: 29mph
Location:  40.17°N, 77.68°W
Report Text: KHGR 241653Z 19019G25KT 10SM SCT027 BKN036 19/12 A2957 RMK AO2 PK WND 17027/1616 SLP020 T01890117
Loading
Personal Weather Stations






























Interactive Weather Map New forecast layout! Learn more

10-Day Weather Forecast

Advertisements
Track Severe Weather on mobile